sensor_id;sensor_type;location;lat;lon;timestamp;P1;durP1;ratioP1;P2;durP2;ratioP2
66189;SDS011;52992;52.084;5.412;2023-07-24T00:01:17;3.60;;;3.30;;
66189;SDS011;52992;52.084;5.412;2023-07-24T00:03:45;5.17;;;3.50;;
66189;SDS011;52992;52.084;5.412;2023-07-24T00:06:12;4.53;;;3.83;;
66189;SDS011;52992;52.084;5.412;2023-07-24T00:08:39;4.67;;;3.80;;
66189;SDS011;52992;52.084;5.412;2023-07-24T00:11:07;4.30;;;3.63;;
66189;SDS011;52992;52.084;5.412;2023-07-24T00:13:34;5.30;;;3.73;;
66189;SDS011;52992;52.084;5.412;2023-07-24T00:16:05;6.47;;;3.70;;
66189;SDS011;52992;52.084;5.412;2023-07-24T00:18:34;4.93;;;4.27;;
66189;SDS011;52992;52.084;5.412;2023-07-24T00:21:01;5.60;;;4.20;;
66189;SDS011;52992;52.084;5.412;2023-07-24T00:23:28;4.70;;;4.10;;
66189;SDS011;52992;52.084;5.412;2023-07-24T00:25:55;5.50;;;4.33;;
66189;SDS011;52992;52.084;5.412;2023-07-24T00:28:22;5.13;;;4.37;;
66189;SDS011;52992;52.084;5.412;2023-07-24T00:30:49;5.13;;;3.87;;
66189;SDS011;52992;52.084;5.412;2023-07-24T00:33:16;4.70;;;4.07;;
66189;SDS011;52992;52.084;5.412;2023-07-24T00:35:43;4.87;;;4.37;;
66189;SDS011;52992;52.084;5.412;2023-07-24T00:38:11;6.03;;;3.77;;
66189;SDS011;52992;52.084;5.412;2023-07-24T00:40:38;7.40;;;3.93;;
66189;SDS011;52992;52.084;5.412;2023-07-24T00:43:05;4.93;;;4.03;;
66189;SDS011;52992;52.084;5.412;2023-07-24T00:45:33;4.73;;;3.90;;
66189;SDS011;52992;52.084;5.412;2023-07-24T00:48:00;4.83;;;4.33;;
66189;SDS011;52992;52.084;5.412;2023-07-24T00:50:28;5.63;;;3.90;;
66189;SDS011;52992;52.084;5.412;2023-07-24T00:52:56;5.20;;;4.43;;
66189;SDS011;52992;52.084;5.412;2023-07-24T00:55:24;5.70;;;4.40;;
66189;SDS011;52992;52.084;5.412;2023-07-24T00:57:51;5.30;;;4.30;;
66189;SDS011;52992;52.084;5.412;2023-07-24T01:00:19;4.83;;;4.33;;
66189;SDS011;52992;52.084;5.412;2023-07-24T01:02:46;6.43;;;4.70;;
66189;SDS011;52992;52.084;5.412;2023-07-24T01:05:14;5.53;;;4.30;;
66189;SDS011;52992;52.084;5.412;2023-07-24T01:07:43;4.73;;;4.23;;
66189;SDS011;52992;52.084;5.412;2023-07-24T01:10:10;5.47;;;4.57;;
66189;SDS011;52992;52.084;5.412;2023-07-24T01:12:45;6.07;;;4.60;;
66189;SDS011;52992;52.084;5.412;2023-07-24T01:15:29;5.80;;;5.20;;
66189;SDS011;52992;52.084;5.412;2023-07-24T01:18:15;5.00;;;4.50;;
66189;SDS011;52992;52.084;5.412;2023-07-24T01:20:46;5.00;;;4.07;;
66189;SDS011;52992;52.084;5.412;2023-07-24T01:26:25;5.97;;;5.00;;
66189;SDS011;52992;52.084;5.412;2023-07-24T01:28:53;4.83;;;4.03;;
66189;SDS011;52992;52.084;5.412;2023-07-24T01:31:20;5.70;;;4.50;;
66189;SDS011;52992;52.084;5.412;2023-07-24T01:33:47;5.13;;;4.63;;
66189;SDS011;52992;52.084;5.412;2023-07-24T01:36:16;4.97;;;4.17;;
66189;SDS011;52992;52.084;5.412;2023-07-24T01:38:45;4.93;;;4.33;;
66189;SDS011;52992;52.084;5.412;2023-07-24T01:41:14;4.70;;;4.17;;
66189;SDS011;52992;52.084;5.412;2023-07-24T01:43:42;5.10;;;4.50;;
66189;SDS011;52992;52.084;5.412;2023-07-24T01:46:09;6.00;;;4.80;;
66189;SDS011;52992;52.084;5.412;2023-07-24T01:48:37;5.67;;;4.50;;
66189;SDS011;52992;52.084;5.412;2023-07-24T01:51:04;5.37;;;4.20;;
66189;SDS011;52992;52.084;5.412;2023-07-24T01:53:31;5.33;;;4.40;;
66189;SDS011;52992;52.084;5.412;2023-07-24T01:55:58;4.43;;;3.70;;
66189;SDS011;52992;52.084;5.412;2023-07-24T01:58:25;5.17;;;4.30;;
66189;SDS011;52992;52.084;5.412;2023-07-24T02:00:54;5.83;;;4.17;;
66189;SDS011;52992;52.084;5.412;2023-07-24T02:03:22;4.73;;;4.13;;
66189;SDS011;52992;52.084;5.412;2023-07-24T02:05:50;4.63;;;4.23;;
66189;SDS011;52992;52.084;5.412;2023-07-24T02:08:18;5.10;;;4.33;;
66189;SDS011;52992;52.084;5.412;2023-07-24T02:10:48;5.53;;;4.60;;
66189;SDS011;52992;52.084;5.412;2023-07-24T02:13:16;4.43;;;4.03;;
66189;SDS011;52992;52.084;5.412;2023-07-24T02:15:48;5.00;;;4.17;;
66189;SDS011;52992;52.084;5.412;2023-07-24T02:18:15;5.13;;;4.13;;
66189;SDS011;52992;52.084;5.412;2023-07-24T02:20:48;4.63;;;4.13;;
66189;SDS011;52992;52.084;5.412;2023-07-24T02:23:19;5.50;;;3.90;;
66189;SDS011;52992;52.084;5.412;2023-07-24T02:25:45;5.03;;;4.10;;
66189;SDS011;52992;52.084;5.412;2023-07-24T02:28:16;5.20;;;3.87;;
66189;SDS011;52992;52.084;5.412;2023-07-24T02:30:44;4.87;;;3.63;;
66189;SDS011;52992;52.084;5.412;2023-07-24T02:33:12;5.07;;;3.93;;
66189;SDS011;52992;52.084;5.412;2023-07-24T02:35:41;5.03;;;3.70;;
66189;SDS011;52992;52.084;5.412;2023-07-24T02:38:08;6.43;;;3.60;;
66189;SDS011;52992;52.084;5.412;2023-07-24T02:40:40;4.70;;;3.63;;
66189;SDS011;52992;52.084;5.412;2023-07-24T02:43:07;3.77;;;3.37;;
66189;SDS011;52992;52.084;5.412;2023-07-24T02:45:34;5.63;;;3.90;;
66189;SDS011;52992;52.084;5.412;2023-07-24T02:48:02;4.33;;;3.60;;
66189;SDS011;52992;52.084;5.412;2023-07-24T02:50:29;4.13;;;3.73;;
66189;SDS011;52992;52.084;5.412;2023-07-24T02:52:56;4.93;;;4.17;;
66189;SDS011;52992;52.084;5.412;2023-07-24T02:55:23;4.60;;;3.90;;
66189;SDS011;52992;52.084;5.412;2023-07-24T02:57:50;5.47;;;3.73;;
66189;SDS011;52992;52.084;5.412;2023-07-24T03:00:18;3.70;;;3.30;;
66189;SDS011;52992;52.084;5.412;2023-07-24T03:02:45;4.40;;;3.47;;
66189;SDS011;52992;52.084;5.412;2023-07-24T03:05:12;4.13;;;3.60;;
66189;SDS011;52992;52.084;5.412;2023-07-24T03:07:39;3.93;;;3.10;;
66189;SDS011;52992;52.084;5.412;2023-07-24T03:10:06;3.10;;;2.80;;
66189;SDS011;52992;52.084;5.412;2023-07-24T03:12:34;4.07;;;3.20;;
66189;SDS011;52992;52.084;5.412;2023-07-24T03:15:01;3.80;;;3.40;;
66189;SDS011;52992;52.084;5.412;2023-07-24T03:17:29;3.73;;;3.13;;
66189;SDS011;52992;52.084;5.412;2023-07-24T03:19:56;4.27;;;3.60;;
66189;SDS011;52992;52.084;5.412;2023-07-24T03:22:23;5.13;;;3.23;;
66189;SDS011;52992;52.084;5.412;2023-07-24T03:24:50;4.93;;;3.47;;
66189;SDS011;52992;52.084;5.412;2023-07-24T03:27:17;5.03;;;3.33;;
66189;SDS011;52992;52.084;5.412;2023-07-24T03:29:44;4.27;;;3.60;;
66189;SDS011;52992;52.084;5.412;2023-07-24T03:32:11;4.40;;;3.53;;
66189;SDS011;52992;52.084;5.412;2023-07-24T03:34:38;4.47;;;3.27;;
66189;SDS011;52992;52.084;5.412;2023-07-24T03:37:05;5.57;;;3.90;;
66189;SDS011;52992;52.084;5.412;2023-07-24T03:39:32;4.90;;;3.87;;
66189;SDS011;52992;52.084;5.412;2023-07-24T03:41:59;5.53;;;3.60;;
66189;SDS011;52992;52.084;5.412;2023-07-24T03:44:26;5.77;;;3.87;;
66189;SDS011;52992;52.084;5.412;2023-07-24T03:46:53;4.97;;;3.63;;
66189;SDS011;52992;52.084;5.412;2023-07-24T03:49:20;5.10;;;3.40;;
66189;SDS011;52992;52.084;5.412;2023-07-24T03:51:48;5.83;;;3.47;;
66189;SDS011;52992;52.084;5.412;2023-07-24T03:54:15;5.20;;;4.07;;
66189;SDS011;52992;52.084;5.412;2023-07-24T03:56:42;5.83;;;3.80;;
66189;SDS011;52992;52.084;5.412;2023-07-24T03:59:09;5.77;;;4.87;;
66189;SDS011;52992;52.084;5.412;2023-07-24T04:01:36;5.53;;;4.30;;
66189;SDS011;52992;52.084;5.412;2023-07-24T04:04:04;9.20;;;4.53;;
66189;SDS011;52992;52.084;5.412;2023-07-24T04:06:31;7.60;;;4.70;;
66189;SDS011;52992;52.084;5.412;2023-07-24T04:08:58;6.47;;;4.43;;
66189;SDS011;52992;52.084;5.412;2023-07-24T04:11:25;7.97;;;5.00;;
66189;SDS011;52992;52.084;5.412;2023-07-24T04:13:52;5.93;;;4.27;;
66189;SDS011;52992;52.084;5.412;2023-07-24T04:16:19;8.10;;;5.07;;
66189;SDS011;52992;52.084;5.412;2023-07-24T04:18:46;6.43;;;4.60;;
66189;SDS011;52992;52.084;5.412;2023-07-24T04:21:13;6.53;;;4.30;;
66189;SDS011;52992;52.084;5.412;2023-07-24T04:23:40;7.50;;;5.17;;
66189;SDS011;52992;52.084;5.412;2023-07-24T04:26:07;5.00;;;4.10;;
66189;SDS011;52992;52.084;5.412;2023-07-24T04:28:34;7.10;;;5.10;;
66189;SDS011;52992;52.084;5.412;2023-07-24T04:31:01;7.63;;;5.40;;
66189;SDS011;52992;52.084;5.412;2023-07-24T04:33:28;8.40;;;4.77;;
66189;SDS011;52992;52.084;5.412;2023-07-24T04:35:57;7.23;;;4.93;;
66189;SDS011;52992;52.084;5.412;2023-07-24T04:38:24;6.83;;;5.03;;
66189;SDS011;52992;52.084;5.412;2023-07-24T04:40:51;9.40;;;5.37;;
66189;SDS011;52992;52.084;5.412;2023-07-24T04:43:18;6.80;;;5.03;;
66189;SDS011;52992;52.084;5.412;2023-07-24T04:45:45;6.60;;;5.07;;
66189;SDS011;52992;52.084;5.412;2023-07-24T04:48:12;6.83;;;4.87;;
66189;SDS011;52992;52.084;5.412;2023-07-24T04:50:39;7.13;;;4.93;;
66189;SDS011;52992;52.084;5.412;2023-07-24T04:53:05;8.47;;;5.40;;
66189;SDS011;52992;52.084;5.412;2023-07-24T04:55:32;7.77;;;5.57;;
66189;SDS011;52992;52.084;5.412;2023-07-24T04:57:59;7.93;;;5.73;;
66189;SDS011;52992;52.084;5.412;2023-07-24T05:00:26;8.43;;;5.23;;
66189;SDS011;52992;52.084;5.412;2023-07-24T05:02:53;7.40;;;5.53;;
66189;SDS011;52992;52.084;5.412;2023-07-24T05:05:20;7.30;;;5.53;;
66189;SDS011;52992;52.084;5.412;2023-07-24T05:07:47;7.07;;;5.30;;
66189;SDS011;52992;52.084;5.412;2023-07-24T05:10:14;6.70;;;5.30;;
66189;SDS011;52992;52.084;5.412;2023-07-24T05:12:41;6.67;;;5.67;;
66189;SDS011;52992;52.084;5.412;2023-07-24T05:15:09;9.67;;;6.23;;
66189;SDS011;52992;52.084;5.412;2023-07-24T05:17:36;7.87;;;5.60;;
66189;SDS011;52992;52.084;5.412;2023-07-24T05:20:03;8.57;;;5.73;;
66189;SDS011;52992;52.084;5.412;2023-07-24T05:22:31;7.77;;;5.37;;
66189;SDS011;52992;52.084;5.412;2023-07-24T05:24:58;9.57;;;5.97;;
66189;SDS011;52992;52.084;5.412;2023-07-24T05:27:24;10.20;;;6.23;;
66189;SDS011;52992;52.084;5.412;2023-07-24T05:29:51;9.20;;;5.77;;
66189;SDS011;52992;52.084;5.412;2023-07-24T05:32:18;10.57;;;5.90;;
66189;SDS011;52992;52.084;5.412;2023-07-24T05:34:45;12.80;;;6.30;;
66189;SDS011;52992;52.084;5.412;2023-07-24T05:37:12;8.27;;;5.47;;
66189;SDS011;52992;52.084;5.412;2023-07-24T05:39:40;8.53;;;6.20;;
66189;SDS011;52992;52.084;5.412;2023-07-24T05:42:07;7.97;;;5.87;;
66189;SDS011;52992;52.084;5.412;2023-07-24T05:44:34;9.97;;;6.43;;
66189;SDS011;52992;52.084;5.412;2023-07-24T05:47:03;9.80;;;6.30;;
66189;SDS011;52992;52.084;5.412;2023-07-24T05:49:30;8.73;;;5.90;;
66189;SDS011;52992;52.084;5.412;2023-07-24T05:51:58;11.07;;;6.03;;
66189;SDS011;52992;52.084;5.412;2023-07-24T05:54:25;10.00;;;6.30;;
66189;SDS011;52992;52.084;5.412;2023-07-24T05:56:52;10.73;;;6.13;;
66189;SDS011;52992;52.084;5.412;2023-07-24T05:59:19;8.63;;;5.67;;
66189;SDS011;52992;52.084;5.412;2023-07-24T06:01:46;9.10;;;6.43;;
66189;SDS011;52992;52.084;5.412;2023-07-24T06:04:13;12.17;;;6.33;;
66189;SDS011;52992;52.084;5.412;2023-07-24T06:06:40;12.00;;;6.27;;
66189;SDS011;52992;52.084;5.412;2023-07-24T06:09:08;9.60;;;6.33;;
66189;SDS011;52992;52.084;5.412;2023-07-24T06:11:35;9.77;;;5.83;;
66189;SDS011;52992;52.084;5.412;2023-07-24T06:14:02;8.47;;;6.17;;
66189;SDS011;52992;52.084;5.412;2023-07-24T06:16:29;10.67;;;6.27;;
66189;SDS011;52992;52.084;5.412;2023-07-24T06:18:56;13.27;;;6.60;;
66189;SDS011;52992;52.084;5.412;2023-07-24T06:21:23;12.87;;;6.63;;
66189;SDS011;52992;52.084;5.412;2023-07-24T06:23:51;10.73;;;5.93;;
66189;SDS011;52992;52.084;5.412;2023-07-24T06:26:18;9.97;;;5.97;;
66189;SDS011;52992;52.084;5.412;2023-07-24T06:28:45;11.17;;;5.77;;
66189;SDS011;52992;52.084;5.412;2023-07-24T06:31:12;11.27;;;6.10;;
66189;SDS011;52992;52.084;5.412;2023-07-24T06:33:39;10.90;;;6.50;;
66189;SDS011;52992;52.084;5.412;2023-07-24T06:36:09;11.73;;;6.47;;
66189;SDS011;52992;52.084;5.412;2023-07-24T06:38:36;9.00;;;5.97;;
66189;SDS011;52992;52.084;5.412;2023-07-24T06:41:03;12.33;;;6.20;;
66189;SDS011;52992;52.084;5.412;2023-07-24T06:43:30;14.23;;;6.40;;
66189;SDS011;52992;52.084;5.412;2023-07-24T06:45:57;11.13;;;6.37;;
66189;SDS011;52992;52.084;5.412;2023-07-24T06:48:24;12.37;;;6.77;;
66189;SDS011;52992;52.084;5.412;2023-07-24T06:50:51;8.00;;;6.17;;
66189;SDS011;52992;52.084;5.412;2023-07-24T06:53:18;9.43;;;6.37;;
66189;SDS011;52992;52.084;5.412;2023-07-24T06:55:45;11.10;;;7.10;;
66189;SDS011;52992;52.084;5.412;2023-07-24T06:58:12;12.13;;;6.97;;
66189;SDS011;52992;52.084;5.412;2023-07-24T07:00:39;9.93;;;6.83;;
66189;SDS011;52992;52.084;5.412;2023-07-24T07:03:06;9.20;;;6.40;;
66189;SDS011;52992;52.084;5.412;2023-07-24T07:05:33;13.20;;;6.87;;
66189;SDS011;52992;52.084;5.412;2023-07-24T07:08:00;11.70;;;6.50;;
66189;SDS011;52992;52.084;5.412;2023-07-24T07:10:27;8.23;;;6.17;;
66189;SDS011;52992;52.084;5.412;2023-07-24T07:12:54;9.13;;;6.37;;
66189;SDS011;52992;52.084;5.412;2023-07-24T07:15:21;10.60;;;6.70;;
66189;SDS011;52992;52.084;5.412;2023-07-24T07:17:48;9.67;;;6.23;;
66189;SDS011;52992;52.084;5.412;2023-07-24T07:20:15;9.30;;;6.67;;
66189;SDS011;52992;52.084;5.412;2023-07-24T07:22:43;12.97;;;6.87;;
66189;SDS011;52992;52.084;5.412;2023-07-24T07:25:12;9.37;;;6.43;;
66189;SDS011;52992;52.084;5.412;2023-07-24T07:27:39;12.40;;;6.23;;
66189;SDS011;52992;52.084;5.412;2023-07-24T07:30:07;8.03;;;6.53;;
66189;SDS011;52992;52.084;5.412;2023-07-24T07:32:34;10.57;;;6.90;;
66189;SDS011;52992;52.084;5.412;2023-07-24T07:35:01;9.03;;;6.87;;
66189;SDS011;52992;52.084;5.412;2023-07-24T07:37:29;9.37;;;6.23;;
66189;SDS011;52992;52.084;5.412;2023-07-24T07:39:56;12.47;;;6.73;;
66189;SDS011;52992;52.084;5.412;2023-07-24T07:42:23;9.67;;;6.73;;
66189;SDS011;52992;52.084;5.412;2023-07-24T07:44:50;9.53;;;6.07;;
66189;SDS011;52992;52.084;5.412;2023-07-24T07:47:17;8.13;;;5.87;;
66189;SDS011;52992;52.084;5.412;2023-07-24T07:49:44;11.60;;;6.93;;
66189;SDS011;52992;52.084;5.412;2023-07-24T07:52:11;9.73;;;6.50;;
66189;SDS011;52992;52.084;5.412;2023-07-24T07:54:39;8.50;;;6.03;;
66189;SDS011;52992;52.084;5.412;2023-07-24T07:57:06;8.70;;;6.87;;
66189;SDS011;52992;52.084;5.412;2023-07-24T07:59:33;6.87;;;6.07;;
66189;SDS011;52992;52.084;5.412;2023-07-24T08:02:01;9.23;;;7.07;;
66189;SDS011;52992;52.084;5.412;2023-07-24T08:04:29;9.47;;;6.23;;
66189;SDS011;52992;52.084;5.412;2023-07-24T08:06:56;8.90;;;6.37;;
66189;SDS011;52992;52.084;5.412;2023-07-24T08:09:23;8.90;;;6.30;;
66189;SDS011;52992;52.084;5.412;2023-07-24T08:11:50;8.07;;;6.53;;
66189;SDS011;52992;52.084;5.412;2023-07-24T08:14:18;8.73;;;5.43;;
66189;SDS011;52992;52.084;5.412;2023-07-24T08:16:47;8.40;;;6.40;;
66189;SDS011;52992;52.084;5.412;2023-07-24T08:19:15;10.83;;;6.33;;
66189;SDS011;52992;52.084;5.412;2023-07-24T08:21:42;10.30;;;5.67;;
66189;SDS011;52992;52.084;5.412;2023-07-24T08:24:09;10.40;;;6.37;;
66189;SDS011;52992;52.084;5.412;2023-07-24T08:26:37;7.30;;;5.90;;
66189;SDS011;52992;52.084;5.412;2023-07-24T08:29:05;10.43;;;5.83;;
66189;SDS011;52992;52.084;5.412;2023-07-24T08:31:32;7.23;;;5.50;;
66189;SDS011;52992;52.084;5.412;2023-07-24T08:33:59;7.90;;;5.97;;
66189;SDS011;52992;52.084;5.412;2023-07-24T08:36:26;9.87;;;5.50;;
66189;SDS011;52992;52.084;5.412;2023-07-24T08:38:54;9.37;;;6.53;;
66189;SDS011;52992;52.084;5.412;2023-07-24T08:41:21;6.20;;;5.10;;
66189;SDS011;52992;52.084;5.412;2023-07-24T08:43:49;7.67;;;5.67;;
66189;SDS011;52992;52.084;5.412;2023-07-24T08:46:18;7.10;;;5.57;;
66189;SDS011;52992;52.084;5.412;2023-07-24T08:48:46;6.23;;;5.10;;
66189;SDS011;52992;52.084;5.412;2023-07-24T08:51:14;7.87;;;5.40;;
66189;SDS011;52992;52.084;5.412;2023-07-24T08:53:50;9.47;;;5.50;;
66189;SDS011;52992;52.084;5.412;2023-07-24T08:56:18;7.50;;;5.07;;
66189;SDS011;52992;52.084;5.412;2023-07-24T08:58:46;8.23;;;5.67;;
66189;SDS011;52992;52.084;5.412;2023-07-24T09:01:13;8.93;;;6.10;;
66189;SDS011;52992;52.084;5.412;2023-07-24T09:03:40;10.93;;;6.17;;
66189;SDS011;52992;52.084;5.412;2023-07-24T09:06:07;9.27;;;6.40;;
66189;SDS011;52992;52.084;5.412;2023-07-24T09:08:35;8.90;;;6.60;;
66189;SDS011;52992;52.084;5.412;2023-07-24T09:11:05;10.77;;;6.67;;
66189;SDS011;52992;52.084;5.412;2023-07-24T09:13:37;9.20;;;6.50;;
66189;SDS011;52992;52.084;5.412;2023-07-24T09:16:08;11.40;;;7.40;;
66189;SDS011;52992;52.084;5.412;2023-07-24T09:18:39;10.10;;;6.87;;
66189;SDS011;52992;52.084;5.412;2023-07-24T09:21:08;8.77;;;6.27;;
66189;SDS011;52992;52.084;5.412;2023-07-24T09:23:35;7.77;;;6.50;;
66189;SDS011;52992;52.084;5.412;2023-07-24T09:26:05;6.93;;;5.83;;
66189;SDS011;52992;52.084;5.412;2023-07-24T09:28:34;7.80;;;6.23;;
66189;SDS011;52992;52.084;5.412;2023-07-24T09:31:01;8.50;;;6.43;;
66189;SDS011;52992;52.084;5.412;2023-07-24T09:33:37;8.37;;;6.10;;
66189;SDS011;52992;52.084;5.412;2023-07-24T09:36:06;9.27;;;6.20;;
66189;SDS011;52992;52.084;5.412;2023-07-24T09:38:35;8.93;;;5.57;;
66189;SDS011;52992;52.084;5.412;2023-07-24T09:41:04;10.57;;;5.90;;
66189;SDS011;52992;52.084;5.412;2023-07-24T09:43:32;9.27;;;6.43;;
66189;SDS011;52992;52.084;5.412;2023-07-24T09:46:07;9.60;;;6.57;;
66189;SDS011;52992;52.084;5.412;2023-07-24T09:48:36;10.43;;;6.23;;
66189;SDS011;52992;52.084;5.412;2023-07-24T09:51:08;8.33;;;6.00;;
66189;SDS011;52992;52.084;5.412;2023-07-24T09:53:49;7.90;;;5.80;;
66189;SDS011;52992;52.084;5.412;2023-07-24T09:56:22;8.67;;;5.97;;
66189;SDS011;52992;52.084;5.412;2023-07-24T09:59:09;8.27;;;7.10;;
66189;SDS011;52992;52.084;5.412;2023-07-24T10:01:38;7.83;;;6.37;;
66189;SDS011;52992;52.084;5.412;2023-07-24T10:04:06;12.57;;;6.10;;
66189;SDS011;52992;52.084;5.412;2023-07-24T10:06:34;9.43;;;6.73;;
66189;SDS011;52992;52.084;5.412;2023-07-24T10:09:02;6.63;;;5.50;;
66189;SDS011;52992;52.084;5.412;2023-07-24T10:11:30;9.53;;;6.03;;
66189;SDS011;52992;52.084;5.412;2023-07-24T10:13:57;7.00;;;5.13;;
66189;SDS011;52992;52.084;5.412;2023-07-24T10:16:25;11.80;;;5.50;;
66189;SDS011;52992;52.084;5.412;2023-07-24T10:18:52;7.13;;;5.40;;
66189;SDS011;52992;52.084;5.412;2023-07-24T10:21:25;9.80;;;5.87;;
66189;SDS011;52992;52.084;5.412;2023-07-24T10:23:54;7.73;;;5.33;;
66189;SDS011;52992;52.084;5.412;2023-07-24T10:26:26;10.07;;;5.50;;
66189;SDS011;52992;52.084;5.412;2023-07-24T10:28:53;9.07;;;5.40;;
66189;SDS011;52992;52.084;5.412;2023-07-24T10:31:21;8.77;;;5.07;;
66189;SDS011;52992;52.084;5.412;2023-07-24T10:33:50;6.60;;;4.90;;
66189;SDS011;52992;52.084;5.412;2023-07-24T10:36:21;7.77;;;5.33;;
66189;SDS011;52992;52.084;5.412;2023-07-24T10:38:53;6.60;;;5.63;;
66189;SDS011;52992;52.084;5.412;2023-07-24T10:41:21;7.60;;;5.43;;
66189;SDS011;52992;52.084;5.412;2023-07-24T10:43:49;6.43;;;5.23;;
66189;SDS011;52992;52.084;5.412;2023-07-24T10:46:34;9.97;;;5.87;;
66189;SDS011;52992;52.084;5.412;2023-07-24T10:49:03;7.83;;;5.40;;
66189;SDS011;52992;52.084;5.412;2023-07-24T10:51:31;8.23;;;5.83;;
66189;SDS011;52992;52.084;5.412;2023-07-24T10:54:01;7.87;;;5.47;;
66189;SDS011;52992;52.084;5.412;2023-07-24T10:56:29;8.00;;;5.47;;
66189;SDS011;52992;52.084;5.412;2023-07-24T10:59:01;6.43;;;5.10;;
66189;SDS011;52992;52.084;5.412;2023-07-24T11:01:30;7.97;;;6.07;;
66189;SDS011;52992;52.084;5.412;2023-07-24T11:04:02;7.30;;;5.73;;
66189;SDS011;52992;52.084;5.412;2023-07-24T11:06:31;7.33;;;5.73;;
66189;SDS011;52992;52.084;5.412;2023-07-24T11:08:59;9.50;;;5.70;;
66189;SDS011;52992;52.084;5.412;2023-07-24T11:11:29;8.77;;;6.17;;
66189;SDS011;52992;52.084;5.412;2023-07-24T11:13:59;6.90;;;5.80;;
66189;SDS011;52992;52.084;5.412;2023-07-24T11:16:28;8.47;;;6.67;;
66189;SDS011;52992;52.084;5.412;2023-07-24T11:19:00;7.53;;;6.10;;
66189;SDS011;52992;52.084;5.412;2023-07-24T11:21:27;8.60;;;6.03;;
66189;SDS011;52992;52.084;5.412;2023-07-24T11:23:56;8.03;;;6.10;;
66189;SDS011;52992;52.084;5.412;2023-07-24T11:26:24;9.63;;;5.10;;
66189;SDS011;52992;52.084;5.412;2023-07-24T11:28:52;9.63;;;6.37;;
66189;SDS011;52992;52.084;5.412;2023-07-24T11:31:20;8.43;;;6.20;;
66189;SDS011;52992;52.084;5.412;2023-07-24T11:33:48;8.93;;;6.13;;
66189;SDS011;52992;52.084;5.412;2023-07-24T11:36:16;11.13;;;6.80;;
66189;SDS011;52992;52.084;5.412;2023-07-24T11:38:47;6.83;;;6.13;;
66189;SDS011;52992;52.084;5.412;2023-07-24T11:41:15;9.83;;;6.53;;
66189;SDS011;52992;52.084;5.412;2023-07-24T11:43:47;7.63;;;6.40;;
66189;SDS011;52992;52.084;5.412;2023-07-24T11:46:27;7.63;;;6.43;;
66189;SDS011;52992;52.084;5.412;2023-07-24T11:48:55;10.83;;;7.50;;
66189;SDS011;52992;52.084;5.412;2023-07-24T11:51:25;11.07;;;7.83;;
66189;SDS011;52992;52.084;5.412;2023-07-24T11:54:07;10.60;;;7.67;;
66189;SDS011;52992;52.084;5.412;2023-07-24T11:56:35;11.40;;;7.83;;
66189;SDS011;52992;52.084;5.412;2023-07-24T11:59:12;10.27;;;7.23;;
66189;SDS011;52992;52.084;5.412;2023-07-24T12:01:41;8.93;;;7.20;;
66189;SDS011;52992;52.084;5.412;2023-07-24T12:04:11;8.37;;;6.37;;
66189;SDS011;52992;52.084;5.412;2023-07-24T12:06:39;8.03;;;6.20;;
66189;SDS011;52992;52.084;5.412;2023-07-24T12:09:06;8.00;;;5.77;;
66189;SDS011;52992;52.084;5.412;2023-07-24T12:11:38;9.87;;;6.17;;
66189;SDS011;52992;52.084;5.412;2023-07-24T12:14:13;7.57;;;5.13;;
66189;SDS011;52992;52.084;5.412;2023-07-24T12:16:41;10.90;;;6.60;;
66189;SDS011;52992;52.084;5.412;2023-07-24T12:19:08;6.00;;;5.40;;
66189;SDS011;52992;52.084;5.412;2023-07-24T12:21:35;7.20;;;5.53;;
66189;SDS011;52992;52.084;5.412;2023-07-24T12:24:02;9.53;;;6.87;;
66189;SDS011;52992;52.084;5.412;2023-07-24T12:26:30;8.63;;;6.63;;
66189;SDS011;52992;52.084;5.412;2023-07-24T12:28:57;9.33;;;7.20;;
66189;SDS011;52992;52.084;5.412;2023-07-24T12:31:26;10.10;;;6.77;;
66189;SDS011;52992;52.084;5.412;2023-07-24T12:33:54;7.00;;;6.20;;
66189;SDS011;52992;52.084;5.412;2023-07-24T12:36:21;9.97;;;7.30;;
66189;SDS011;52992;52.084;5.412;2023-07-24T12:38:48;9.53;;;7.13;;
66189;SDS011;52992;52.084;5.412;2023-07-24T12:41:15;10.70;;;7.27;;
66189;SDS011;52992;52.084;5.412;2023-07-24T12:43:43;7.57;;;6.27;;
66189;SDS011;52992;52.084;5.412;2023-07-24T12:46:10;9.27;;;6.10;;
66189;SDS011;52992;52.084;5.412;2023-07-24T12:48:38;6.37;;;5.67;;
66189;SDS011;52992;52.084;5.412;2023-07-24T12:51:05;8.53;;;6.27;;
66189;SDS011;52992;52.084;5.412;2023-07-24T12:53:32;8.50;;;6.00;;
66189;SDS011;52992;52.084;5.412;2023-07-24T12:56:06;11.33;;;7.93;;
66189;SDS011;52992;52.084;5.412;2023-07-24T12:58:33;9.80;;;6.60;;
66189;SDS011;52992;52.084;5.412;2023-07-24T13:01:00;8.27;;;6.63;;
66189;SDS011;52992;52.084;5.412;2023-07-24T13:03:27;8.20;;;6.90;;
66189;SDS011;52992;52.084;5.412;2023-07-24T13:05:54;7.10;;;6.27;;
66189;SDS011;52992;52.084;5.412;2023-07-24T13:08:21;7.77;;;6.10;;
66189;SDS011;52992;52.084;5.412;2023-07-24T13:10:49;7.23;;;6.00;;
66189;SDS011;52992;52.084;5.412;2023-07-24T13:13:17;9.47;;;6.47;;
66189;SDS011;52992;52.084;5.412;2023-07-24T13:15:44;9.07;;;6.30;;
66189;SDS011;52992;52.084;5.412;2023-07-24T13:18:11;8.57;;;6.00;;
66189;SDS011;52992;52.084;5.412;2023-07-24T13:20:54;8.80;;;5.73;;
66189;SDS011;52992;52.084;5.412;2023-07-24T13:23:22;8.30;;;6.03;;
66189;SDS011;52992;52.084;5.412;2023-07-24T13:25:51;7.27;;;5.67;;
66189;SDS011;52992;52.084;5.412;2023-07-24T13:28:19;12.30;;;6.80;;
66189;SDS011;52992;52.084;5.412;2023-07-24T13:30:46;8.47;;;5.87;;
66189;SDS011;52992;52.084;5.412;2023-07-24T13:33:13;10.70;;;6.17;;
66189;SDS011;52992;52.084;5.412;2023-07-24T13:35:40;7.27;;;5.87;;
66189;SDS011;52992;52.084;5.412;2023-07-24T13:38:08;6.73;;;5.40;;
66189;SDS011;52992;52.084;5.412;2023-07-24T13:40:35;7.47;;;6.10;;
66189;SDS011;52992;52.084;5.412;2023-07-24T13:43:02;9.13;;;6.63;;
66189;SDS011;52992;52.084;5.412;2023-07-24T13:45:30;11.87;;;7.57;;
66189;SDS011;52992;52.084;5.412;2023-07-24T13:47:57;8.57;;;6.67;;
66189;SDS011;52992;52.084;5.412;2023-07-24T13:50:28;5.77;;;4.50;;
66189;SDS011;52992;52.084;5.412;2023-07-24T13:52:56;3.50;;;2.67;;
66189;SDS011;52992;52.084;5.412;2023-07-24T13:55:23;4.43;;;2.67;;
66189;SDS011;52992;52.084;5.412;2023-07-24T13:57:50;4.20;;;3.03;;
66189;SDS011;52992;52.084;5.412;2023-07-24T14:00:17;5.20;;;3.63;;
66189;SDS011;52992;52.084;5.412;2023-07-24T14:02:44;6.33;;;4.17;;
66189;SDS011;52992;52.084;5.412;2023-07-24T14:05:11;6.93;;;5.00;;
66189;SDS011;52992;52.084;5.412;2023-07-24T14:07:38;5.07;;;4.47;;
66189;SDS011;52992;52.084;5.412;2023-07-24T14:10:05;7.03;;;5.27;;
66189;SDS011;52992;52.084;5.412;2023-07-24T14:12:32;9.03;;;6.60;;
66189;SDS011;52992;52.084;5.412;2023-07-24T14:14:59;8.20;;;6.50;;
66189;SDS011;52992;52.084;5.412;2023-07-24T14:17:27;11.90;;;7.13;;
66189;SDS011;52992;52.084;5.412;2023-07-24T14:19:54;14.23;;;7.70;;
66189;SDS011;52992;52.084;5.412;2023-07-24T14:22:22;11.00;;;8.70;;
66189;SDS011;52992;52.084;5.412;2023-07-24T14:24:51;14.53;;;8.83;;
66189;SDS011;52992;52.084;5.412;2023-07-24T14:27:19;12.40;;;8.50;;
66189;SDS011;52992;52.084;5.412;2023-07-24T14:29:46;11.97;;;9.17;;
66189;SDS011;52992;52.084;5.412;2023-07-24T14:32:13;14.57;;;9.70;;
66189;SDS011;52992;52.084;5.412;2023-07-24T14:34:42;17.07;;;10.47;;
66189;SDS011;52992;52.084;5.412;2023-07-24T14:37:09;13.33;;;10.17;;
66189;SDS011;52992;52.084;5.412;2023-07-24T14:39:36;12.03;;;8.93;;
66189;SDS011;52992;52.084;5.412;2023-07-24T14:42:03;11.53;;;8.40;;
66189;SDS011;52992;52.084;5.412;2023-07-24T14:44:30;11.60;;;8.03;;
66189;SDS011;52992;52.084;5.412;2023-07-24T14:46:57;11.60;;;8.30;;
66189;SDS011;52992;52.084;5.412;2023-07-24T14:49:24;10.63;;;7.70;;
66189;SDS011;52992;52.084;5.412;2023-07-24T14:51:51;8.70;;;6.33;;
66189;SDS011;52992;52.084;5.412;2023-07-24T14:54:18;11.03;;;6.90;;